Time;durP1;ratioP1;P1;durP2;ratioP2;P2;SDS_P1;SDS_P2;PMS_P1;PMS_P2;Temp;Humidity;BMP_temperature;BMP_pressure;BME280_temperature;BME280_humidity;BME280_pressure;Samples;Min_cycle;Max_cycle;Signal;HPM_P1;HPM_P2
2024/01/09 00:00:33;;;;;;;1.40;0.40;;;;;;;-8.80;85.08;103228.53;5054658;28;20735;-69
2024/01/09 00:03:01;;;;;;;1.40;0.38;;;;;;;-8.70;84.60;103228.72;5054720;28;20251;-69
2024/01/09 00:05:28;;;;;;;1.40;0.40;;;;;;;-8.78;84.84;103237.13;5054425;28;20207;-69
2024/01/09 00:07:55;;;;;;;1.40;0.40;;;;;;;-8.83;85.43;103227.91;5054839;28;20687;-69
2024/01/09 00:10:21;;;;;;;1.40;0.30;;;;;;;-8.77;86.42;103232.72;5054311;28;20726;-69
2024/01/09 00:12:48;;;;;;;1.40;0.30;;;;;;;-8.77;86.24;103227.47;5054830;28;20238;-69
2024/01/09 00:15:14;;;;;;;1.40;0.30;;;;;;;-8.68;85.70;103237.31;5054562;28;20442;-69
2024/01/09 00:17:42;;;;;;;1.40;0.40;;;;;;;-8.64;85.44;103230.91;5054827;28;20218;-68
2024/01/09 00:20:11;;;;;;;1.40;0.30;;;;;;;-8.71;84.35;103233.16;5054454;28;20203;-68
2024/01/09 00:22:38;;;;;;;1.40;0.40;;;;;;;-8.76;83.42;103240.50;5054344;28;20258;-69
2024/01/09 00:25:07;;;;;;;1.40;0.40;;;;;;;-8.80;84.63;103238.22;5054348;28;20307;-69
2024/01/09 00:27:33;;;;;;;1.40;0.40;;;;;;;-8.88;84.62;103240.53;5054062;28;20286;-69
2024/01/09 00:30:00;;;;;;;1.40;0.40;;;;;;;-8.91;84.75;103242.41;5053923;28;20290;-69
2024/01/09 00:32:27;;;;;;;1.60;0.60;;;;;;;-8.93;84.61;103249.56;5053953;28;20266;-69
2024/01/09 00:34:53;;;;;;;1.70;0.90;;;;;;;-8.91;83.98;103242.41;5054200;28;20242;-69
2024/01/09 00:37:21;;;;;;;1.40;0.30;;;;;;;-8.97;83.56;103245.47;5054893;28;20291;-69
2024/01/09 00:39:50;;;;;;;1.40;0.40;;;;;;;-8.99;84.00;103249.16;5054659;28;20204;-69
2024/01/09 00:42:17;;;;;;;1.40;0.40;;;;;;;-9.01;84.92;103248.41;5054101;28;20775;-67
2024/01/09 00:44:43;;;;;;;1.40;0.30;;;;;;;-9.00;84.29;103243.06;5054025;28;20294;-68
2024/01/09 00:47:10;;;;;;;1.40;0.40;;;;;;;-9.16;82.86;103258.22;5053995;28;20250;-68
2024/01/09 00:49:37;;;;;;;1.42;0.40;;;;;;;-9.17;84.25;103240.75;5054025;28;20211;-68
2024/01/09 00:52:04;;;;;;;1.40;0.40;;;;;;;-9.25;84.37;103237.81;5053807;28;20259;-69
2024/01/09 00:54:32;;;;;;;1.40;0.40;;;;;;;-9.31;85.02;103239.09;5053891;28;20258;-68
2024/01/09 00:56:58;;;;;;;1.85;1.05;;;;;;;-9.33;85.27;103245.41;5053922;28;20208;-68
2024/01/09 00:59:25;;;;;;;1.40;0.40;;;;;;;-9.33;85.27;103242.78;5053625;28;20262;-68
2024/01/09 01:01:52;;;;;;;1.40;0.30;;;;;;;-9.28;85.01;103245.91;5053789;28;20307;-68
2024/01/09 01:04:19;;;;;;;1.40;0.30;;;;;;;-9.23;84.69;103235.94;5053426;28;20711;-68
2024/01/09 01:06:46;;;;;;;1.40;0.40;;;;;;;-9.23;85.21;103241.19;5053601;28;20199;-68
2024/01/09 01:09:13;;;;;;;1.40;0.40;;;;;;;-9.25;84.70;103238.69;5053965;28;20212;-68
2024/01/09 01:11:41;;;;;;;1.67;0.68;;;;;;;-9.29;84.75;103234.59;5053267;28;20259;-69
2024/01/09 01:14:08;;;;;;;1.40;0.40;;;;;;;-9.24;85.44;103242.13;5053904;28;20204;-69
2024/01/09 01:16:35;;;;;;;1.40;0.30;;;;;;;-9.18;84.91;103245.16;5053612;28;20294;-69
2024/01/09 01:19:01;;;;;;;1.40;0.40;;;;;;;-9.04;83.56;103238.97;5053370;28;20409;-69
2024/01/09 01:21:28;;;;;;;1.40;0.40;;;;;;;-9.08;81.69;103244.53;5053135;28;20699;-68
2024/01/09 01:23:55;;;;;;;1.40;0.40;;;;;;;-9.22;82.64;103230.56;5053516;28;20265;-68
2024/01/09 01:26:21;;;;;;;1.40;0.30;;;;;;;-9.19;81.69;103237.41;5053865;28;20241;-68
2024/01/09 01:28:49;;;;;;;1.40;0.30;;;;;;;-9.17;82.76;103230.25;5053416;28;20295;-68
2024/01/09 01:31:16;;;;;;;1.40;0.40;;;;;;;-9.16;83.76;103221.47;5053796;28;20237;-68
2024/01/09 01:33:42;;;;;;;1.50;0.52;;;;;;;-9.32;81.64;103233.94;5052968;28;20227;-68
2024/01/09 01:36:14;;;;;;;1.48;0.40;;;;;;;-9.47;82.69;103239.28;5053184;28;20229;-68
2024/01/09 01:38:41;;;;;;;2.30;1.45;;;;;;;-9.35;82.57;103231.53;5055606;28;20218;-68
2024/01/09 01:41:07;;;;;;;1.40;0.40;;;;;;;-9.54;81.93;103240.66;5057781;28;20298;-68
2024/01/09 01:43:34;;;;;;;2.92;1.20;;;;;;;-9.50;81.58;103243.91;5057403;28;20196;-68
2024/01/09 01:46:02;;;;;;;1.40;0.30;;;;;;;-9.45;81.59;103236.56;5057367;28;20636;-69
2024/01/09 01:48:30;;;;;;;1.40;0.40;;;;;;;-9.52;83.01;103236.13;5057366;28;20721;-68
2024/01/09 01:50:58;;;;;;;1.40;0.30;;;;;;;-9.62;82.47;103235.06;5057185;28;20717;-68
2024/01/09 01:53:25;;;;;;;1.40;0.30;;;;;;;-9.45;82.60;103237.41;5057271;28;20233;-68
2024/01/09 01:55:52;;;;;;;1.40;0.40;;;;;;;-9.45;83.29;103236.56;5057028;28;20242;-68
2024/01/09 01:58:19;;;;;;;1.40;0.30;;;;;;;-9.55;83.71;103236.34;5056995;28;20230;-68
2024/01/09 02:00:46;;;;;;;1.40;0.40;;;;;;;-9.50;83.97;103234.25;5057391;28;20257;-68
2024/01/09 02:03:15;;;;;;;1.40;0.30;;;;;;;-9.44;83.61;103235.59;5057425;28;20251;-69
2024/01/09 02:05:42;;;;;;;1.40;0.50;;;;;;;-9.44;83.90;103233.81;5057414;28;20216;-69
2024/01/09 02:08:10;;;;;;;1.40;0.40;;;;;;;-9.35;83.74;103232.34;5057275;28;20203;-69
2024/01/09 02:10:36;;;;;;;1.40;0.30;;;;;;;-9.37;83.50;103234.25;5057532;28;20235;-69
2024/01/09 02:13:03;;;;;;;4.53;3.05;;;;;;;-9.37;84.35;103230.81;5056599;28;20631;-69
2024/01/09 02:15:30;;;;;;;1.40;0.40;;;;;;;-9.41;82.73;103232.78;5056898;28;20626;-69
2024/01/09 02:17:57;;;;;;;1.40;0.40;;;;;;;-9.56;82.24;103231.19;5057927;28;20289;-69
2024/01/09 02:20:25;;;;;;;1.50;0.40;;;;;;;-9.65;81.49;103230.03;5056882;28;20258;-69
2024/01/09 02:22:52;;;;;;;1.40;0.30;;;;;;;-9.63;82.67;103243.06;5056959;28;20316;-69
2024/01/09 02:25:18;;;;;;;1.40;0.30;;;;;;;-9.62;83.56;103242.94;5057338;28;20637;-69
2024/01/09 02:27:54;;;;;;;1.40;0.30;;;;;;;-9.68;84.10;103245.97;5056474;28;20671;-69
2024/01/09 02:30:23;;;;;;;1.40;0.40;;;;;;;-9.66;84.55;103236.22;5056694;28;20187;-69
2024/01/09 02:32:51;;;;;;;1.38;0.40;;;;;;;-9.64;84.66;103231.72;5056467;28;20272;-65
2024/01/09 02:35:18;;;;;;;1.40;0.40;;;;;;;-9.61;84.31;103247.22;5056221;28;20690;-71
2024/01/09 02:37:44;;;;;;;1.40;0.30;;;;;;;-9.53;83.21;103250.19;5056404;28;20247;-69
2024/01/09 02:40:11;;;;;;;1.50;0.50;;;;;;;-9.68;81.83;103246.81;5056835;28;20188;-68
2024/01/09 02:42:37;;;;;;;1.40;0.40;;;;;;;-9.62;82.38;103244.72;5057066;28;20306;-68
2024/01/09 02:45:05;;;;;;;1.40;0.40;;;;;;;-9.63;83.65;103243.88;5056890;28;20199;-68
2024/01/09 02:47:33;;;;;;;1.40;0.40;;;;;;;-9.70;82.73;103237.34;5056384;28;20306;-69
2024/01/09 02:49:59;;;;;;;1.50;0.50;;;;;;;-9.76;82.88;103246.47;5056057;28;20204;-69
2024/01/09 02:52:26;;;;;;;1.40;0.32;;;;;;;-9.78;82.98;103247.50;5056440;28;20573;-69
2024/01/09 02:54:53;;;;;;;1.80;0.90;;;;;;;-9.80;82.11;103247.63;5056192;28;20207;-69
2024/01/09 02:57:19;;;;;;;1.42;0.40;;;;;;;-9.87;81.94;103240.25;5056538;28;20200;-69
2024/01/09 02:59:46;;;;;;;1.40;0.40;;;;;;;-9.76;80.70;103243.03;5056062;28;20271;-69
2024/01/09 03:02:12;;;;;;;1.40;0.40;;;;;;;-9.69;80.61;103249.56;5055553;28;20810;-70
2024/01/09 03:04:40;;;;;;;1.40;0.40;;;;;;;-9.63;80.02;103248.28;5056063;28;20290;-70
2024/01/09 03:07:07;;;;;;;1.40;0.30;;;;;;;-9.61;80.04;103242.00;5056279;28;20203;-69
2024/01/09 03:09:34;;;;;;;1.40;0.40;;;;;;;-9.79;80.80;103246.69;5055946;28;20238;-70
2024/01/09 03:12:00;;;;;;;1.40;0.30;;;;;;;-9.81;81.43;103252.97;5055402;28;20723;-70
2024/01/09 03:14:27;;;;;;;1.40;0.40;;;;;;;-9.89;81.69;103252.63;5055720;28;20204;-69
2024/01/09 03:16:54;;;;;;;1.48;0.35;;;;;;;-9.99;83.75;103247.16;5056149;28;20303;-70
2024/01/09 03:19:20;;;;;;;1.40;0.30;;;;;;;-9.89;83.69;103244.78;5056099;28;20647;-70
2024/01/09 03:21:48;;;;;;;1.40;0.30;;;;;;;-9.80;83.31;103241.53;5055250;28;20223;-70
2024/01/09 03:24:15;;;;;;;1.40;0.40;;;;;;;-9.77;83.16;103247.44;5055525;28;20196;-69
2024/01/09 03:26:42;;;;;;;1.40;0.40;;;;;;;-9.84;81.60;103240.06;5055772;28;20203;-69
2024/01/09 03:29:09;;;;;;;1.40;0.40;;;;;;;-9.83;81.78;103245.19;5055524;28;20261;-69
2024/01/09 03:31:35;;;;;;;1.40;0.40;;;;;;;-9.86;80.48;103234.94;5055733;28;20227;-69
2024/01/09 03:34:02;;;;;;;1.40;0.30;;;;;;;-10.01;80.68;103244.63;5055380;28;20314;-69
2024/01/09 03:36:30;;;;;;;1.40;0.50;;;;;;;-9.95;80.51;103233.75;5055282;28;20208;-69
2024/01/09 03:38:58;;;;;;;1.40;0.40;;;;;;;-9.81;79.85;103245.94;5054991;28;20208;-69
2024/01/09 03:41:25;;;;;;;1.40;0.30;;;;;;;-9.82;81.15;103238.19;5054840;28;20729;-69
2024/01/09 03:43:52;;;;;;;1.40;0.35;;;;;;;-9.82;80.98;103238.19;5055381;28;20204;-69
2024/01/09 03:46:18;;;;;;;1.50;0.75;;;;;;;-9.79;80.92;103233.56;5055346;28;20208;-69
2024/01/09 03:48:45;;;;;;;1.40;0.40;;;;;;;-9.88;80.62;103225.47;5055107;28;20231;-69
2024/01/09 03:51:12;;;;;;;1.40;0.40;;;;;;;-9.87;82.12;103235.00;5054681;28;20663;-69
2024/01/09 03:53:38;;;;;;;1.42;0.50;;;;;;;-9.81;82.79;103235.47;5055079;28;20315;-69
2024/01/09 03:56:07;;;;;;;1.40;0.40;;;;;;;-9.73;82.02;103232.34;5055102;28;20261;-69
2024/01/09 03:58:33;;;;;;;1.40;0.40;;;;;;;-9.88;80.96;103231.56;5055000;28;20199;-69
2024/01/09 04:01:00;;;;;;;1.40;0.40;;;;;;;-9.93;80.50;103233.66;5054221;28;20617;-69
2024/01/09 04:03:27;;;;;;;1.40;0.40;;;;;;;-9.97;80.19;103235.63;5054974;28;20646;-69
2024/01/09 04:05:54;;;;;;;1.40;0.35;;;;;;;-9.88;81.33;103236.81;5054748;28;20219;-69
2024/01/09 04:08:20;;;;;;;1.40;0.40;;;;;;;-9.78;81.40;103244.88;5055071;28;20295;-69
2024/01/09 04:10:47;;;;;;;1.50;0.50;;;;;;;-9.89;78.80;103239.53;5054850;28;20298;-69
2024/01/09 04:13:15;;;;;;;1.40;0.40;;;;;;;-10.03;79.24;103236.03;5054831;28;20223;-69
2024/01/09 04:15:42;;;;;;;1.40;0.38;;;;;;;-10.00;79.49;103230.59;5054691;28;20604;-69
2024/01/09 04:18:09;;;;;;;1.40;0.40;;;;;;;-9.89;78.91;103247.41;5054549;28;20211;-69
2024/01/09 04:20:36;;;;;;;1.35;0.30;;;;;;;-9.85;79.15;103238.38;5054530;28;20204;-69
2024/01/09 04:23:02;;;;;;;1.40;0.30;;;;;;;-9.91;81.06;103239.66;5054171;28;20338;-69
2024/01/09 04:25:29;;;;;;;1.40;0.30;;;;;;;-9.89;80.65;103242.16;5054100;28;20294;-69
2024/01/09 04:27:55;;;;;;;1.40;0.40;;;;;;;-9.94;81.01;103245.91;5054329;28;20291;-70
2024/01/09 04:30:24;;;;;;;1.40;0.30;;;;;;;-9.93;81.42;103252.00;5054032;28;20200;-69
2024/01/09 04:32:51;;;;;;;1.40;0.30;;;;;;;-9.91;82.77;103250.97;5054083;28;20649;-69
2024/01/09 04:35:18;;;;;;;2.22;0.63;;;;;;;-9.93;82.55;103244.13;5053900;28;20295;-69
2024/01/09 04:37:45;;;;;;;1.40;0.40;;;;;;;-10.00;83.29;103241.09;5053865;28;20273;-68
2024/01/09 04:40:12;;;;;;;1.40;0.40;;;;;;;-10.00;83.33;103246.31;5054573;28;20235;-69
2024/01/09 04:42:38;;;;;;;1.40;0.40;;;;;;;-10.10;82.14;103254.88;5054650;28;20224;-69
2024/01/09 04:45:06;;;;;;;1.40;0.40;;;;;;;-10.06;83.36;103251.94;5053751;28;20228;-69
2024/01/09 04:47:34;;;;;;;1.40;0.40;;;;;;;-10.04;82.84;103242.22;5053969;28;20261;-69
2024/01/09 04:50:01;;;;;;;1.40;0.40;;;;;;;-10.09;83.07;103236.44;5053952;28;20258;-69
2024/01/09 04:52:27;;;;;;;1.55;0.65;;;;;;;-10.03;82.21;103243.91;5053945;28;20622;-69
2024/01/09 04:54:54;;;;;;;1.40;0.40;;;;;;;-9.83;79.89;103234.72;5054495;28;20218;-69
2024/01/09 04:57:20;;;;;;;1.40;0.30;;;;;;;-9.76;79.66;103240.41;5055512;28;20207;-69
2024/01/09 04:59:49;;;;;;;1.40;0.40;;;;;;;-9.82;80.40;103236.41;5054272;28;20274;-69
2024/01/09 05:02:15;;;;;;;1.40;0.40;;;;;;;-9.83;81.94;103242.56;5054298;28;20262;-69
2024/01/09 05:04:43;;;;;;;1.40;0.40;;;;;;;-10.02;81.08;103242.94;5054075;28;20254;-69
2024/01/09 05:07:10;;;;;;;1.40;0.30;;;;;;;-10.05;81.51;103240.53;5054027;28;20242;-69
2024/01/09 05:09:38;;;;;;;1.40;0.30;;;;;;;-10.08;81.74;103230.25;5053969;28;20635;-69
2024/01/09 05:12:05;;;;;;;1.40;0.40;;;;;;;-10.14;83.25;103243.75;5053029;28;20277;-70
2024/01/09 05:14:31;;;;;;;1.40;0.40;;;;;;;-10.16;81.91;103245.63;5053650;28;20234;-68
2024/01/09 05:16:58;;;;;;;1.40;0.40;;;;;;;-10.08;81.95;103247.75;5053659;28;20286;-69
2024/01/09 05:19:24;;;;;;;1.40;0.40;;;;;;;-10.13;81.41;103242.81;5053742;28;20290;-69
2024/01/09 05:21:52;;;;;;;1.40;0.40;;;;;;;-10.23;82.30;103241.72;5053667;28;20256;-69
2024/01/09 05:24:19;;;;;;;1.48;0.40;;;;;;;-10.14;83.23;103250.75;5053652;28;20200;-69
2024/01/09 05:26:46;;;;;;;1.40;0.30;;;;;;;-10.18;82.22;103250.13;5053747;28;20242;-69
2024/01/09 05:29:12;;;;;;;1.40;0.30;;;;;;;-10.20;80.89;103247.59;5053863;28;20246;-69
2024/01/09 05:31:42;;;;;;;1.40;0.30;;;;;;;-10.10;81.48;103250.47;5053612;28;20277;-69
2024/01/09 05:34:09;;;;;;;2.03;1.33;;;;;;;-10.17;79.99;103251.81;5053074;28;20259;-69
2024/01/09 05:36:36;;;;;;;1.35;0.30;;;;;;;-10.04;80.00;103244.00;5053155;28;20683;-69
2024/01/09 05:39:04;;;;;;;1.80;0.90;;;;;;;-9.95;79.07;103246.88;5066864;22;20318;-66
2024/01/09 05:41:30;;;;;;;1.40;0.40;;;;;;;-9.92;79.64;103243.19;5052846;28;20715;-67
2024/01/09 05:43:57;;;;;;;1.40;0.30;;;;;;;-10.07;80.06;103252.91;5053360;28;20734;-66
2024/01/09 05:46:24;;;;;;;1.60;0.88;;;;;;;-10.15;80.93;103249.94;5053048;28;20214;-66
2024/01/09 05:48:50;;;;;;;1.40;0.40;;;;;;;-10.04;80.46;103244.84;5053868;28;20549;-66
2024/01/09 05:51:17;;;;;;;1.40;0.40;;;;;;;-10.05;80.87;103248.38;5053202;28;20213;-66
2024/01/09 05:53:44;;;;;;;2.97;1.58;;;;;;;-10.04;81.75;103246.63;5053120;28;20255;-66
2024/01/09 05:56:12;;;;;;;1.95;0.98;;;;;;;-10.08;81.20;103243.38;5053290;28;20200;-66
2024/01/09 05:58:39;;;;;;;1.50;0.68;;;;;;;-10.12;81.78;103254.13;5053194;28;20203;-67
2024/01/09 06:01:06;;;;;;;1.40;0.40;;;;;;;-10.18;82.45;103247.50;5052897;28;20262;-66
2024/01/09 06:03:32;;;;;;;1.40;0.40;;;;;;;-10.18;83.22;103250.97;5053135;28;20200;-68
2024/01/09 06:05:59;;;;;;;1.40;0.30;;;;;;;-10.30;81.34;103249.19;5052795;28;20250;-66
2024/01/09 06:08:26;;;;;;;1.40;0.40;;;;;;;-10.16;82.08;103241.22;5053128;28;20199;-66
2024/01/09 06:10:52;;;;;;;1.40;0.40;;;;;;;-10.02;82.54;103242.13;5052738;28;20286;-67
2024/01/09 06:13:20;;;;;;;1.40;0.40;;;;;;;-10.16;82.56;103245.63;5052876;28;20751;-66
2024/01/09 06:15:47;;;;;;;1.33;0.30;;;;;;;-10.04;83.24;103238.75;5052981;28;20210;-66
2024/01/09 06:18:13;;;;;;;1.40;0.40;;;;;;;-10.12;82.79;103251.53;5052627;28;20204;-68
2024/01/09 06:20:40;;;;;;;1.40;0.40;;;;;;;-9.97;82.63;103238.25;5052614;28;20204;-68
2024/01/09 06:23:07;;;;;;;1.40;0.40;;;;;;;-10.04;82.84;103231.75;5052915;28;20639;-68
2024/01/09 06:25:33;;;;;;;1.40;0.40;;;;;;;-10.09;82.76;103236.44;5056035;28;20231;-69
2024/01/09 06:28:00;;;;;;;1.40;0.30;;;;;;;-10.12;82.77;103243.66;5056815;28;20608;-69
2024/01/09 06:30:28;;;;;;;1.40;0.40;;;;;;;-10.09;82.28;103241.69;5056475;28;20269;-69
2024/01/09 06:32:55;;;;;;;1.40;0.40;;;;;;;-9.99;82.83;103247.16;5056103;28;20224;-69
2024/01/09 06:35:22;;;;;;;1.40;0.40;;;;;;;-9.83;82.55;103246.97;5056094;28;20660;-69
2024/01/09 06:37:48;;;;;;;1.40;0.30;;;;;;;-9.70;81.01;103242.59;5055692;28;20277;-69
2024/01/09 06:40:19;;;;;;;1.35;0.30;;;;;;;-9.78;79.97;103255.38;5056055;28;20267;-69
2024/01/09 06:42:46;;;;;;;1.40;0.40;;;;;;;-9.98;80.04;103257.53;5056008;28;20255;-69
2024/01/09 06:45:14;;;;;;;1.40;0.40;;;;;;;-10.08;79.56;103264.31;5055769;28;20239;-69
2024/01/09 06:47:42;;;;;;;1.40;0.40;;;;;;;-10.17;80.14;103260.50;5056208;28;20575;-69
2024/01/09 06:50:09;;;;;;;1.35;0.40;;;;;;;-10.04;79.21;103259.72;5055970;28;20299;-69
2024/01/09 06:52:36;;;;;;;1.40;0.30;;;;;;;-10.04;78.87;103268.44;5055867;28;20594;-70
2024/01/09 06:55:03;;;;;;;1.63;0.85;;;;;;;-10.25;78.93;103257.56;5056187;28;20314;-69
2024/01/09 06:57:30;;;;;;;1.40;0.30;;;;;;;-10.27;78.94;103262.09;5056217;28;20291;-70
2024/01/09 06:59:56;;;;;;;1.40;0.30;;;;;;;-10.29;79.53;103263.09;5056272;28;20207;-69
2024/01/09 07:02:23;;;;;;;1.40;0.40;;;;;;;-10.21;79.36;103266.88;5056135;28;20306;-69
2024/01/09 07:04:51;;;;;;;1.40;0.40;;;;;;;-10.14;78.85;103269.94;5055765;28;20206;-70
2024/01/09 07:07:18;;;;;;;1.35;0.40;;;;;;;-10.13;79.32;103271.66;5056450;28;20290;-70
2024/01/09 07:09:45;;;;;;;1.40;0.40;;;;;;;-10.13;80.75;103274.25;5056383;28;20204;-70
2024/01/09 07:12:13;;;;;;;1.40;0.40;;;;;;;-10.17;80.38;103268.38;5055761;28;20234;-69
2024/01/09 07:14:40;;;;;;;1.40;0.40;;;;;;;-10.28;78.62;103267.41;5056237;28;20220;-69
2024/01/09 07:17:07;;;;;;;1.40;0.30;;;;;;;-10.24;78.63;103259.22;5055850;28;20560;-69
2024/01/09 07:19:34;;;;;;;1.33;0.30;;;;;;;-10.04;79.80;103265.81;5055886;28;20219;-69
2024/01/09 07:22:02;;;;;;;1.40;0.40;;;;;;;-10.01;81.16;103268.22;5055473;28;20273;-69
2024/01/09 07:24:29;;;;;;;1.40;0.40;;;;;;;-9.99;81.71;103273.38;5056329;28;20291;-69
2024/01/09 07:26:56;;;;;;;1.38;0.30;;;;;;;-10.09;81.38;103272.25;5056377;28;20253;-69
2024/01/09 07:29:22;;;;;;;1.40;0.30;;;;;;;-10.14;81.19;103274.34;5057595;28;20619;-69
2024/01/09 07:31:49;;;;;;;1.40;0.40;;;;;;;-10.23;80.54;103276.59;5057274;28;20251;-69
2024/01/09 07:34:16;;;;;;;1.40;0.30;;;;;;;-10.26;81.26;103284.72;5057432;28;20318;-69
2024/01/09 07:36:43;;;;;;;1.50;0.75;;;;;;;-10.18;81.05;103281.56;5056752;28;20335;-69
2024/01/09 07:39:12;;;;;;;1.40;0.40;;;;;;;-10.18;81.56;103277.19;5057621;28;20306;-69
2024/01/09 07:41:39;;;;;;;1.40;0.40;;;;;;;-10.13;80.99;103276.88;5057806;28;20251;-69
2024/01/09 07:44:06;;;;;;;1.38;0.30;;;;;;;-10.04;80.47;103273.66;5057075;28;20226;-69
2024/01/09 07:46:33;;;;;;;1.35;0.35;;;;;;;-10.06;81.20;103278.16;5057175;28;20204;-69
2024/01/09 07:49:00;;;;;;;1.50;0.55;;;;;;;-10.07;81.68;103279.09;5057317;28;20295;-69
2024/01/09 07:51:26;;;;;;;1.40;0.40;;;;;;;-10.06;82.09;103288.63;5056111;28;20315;-69
2024/01/09 07:53:53;;;;;;;1.40;0.30;;;;;;;-10.11;81.73;103290.72;5054681;28;20761;-69
2024/01/09 07:56:21;;;;;;;1.40;0.40;;;;;;;-10.16;81.71;103298.88;5055753;28;20287;-69
2024/01/09 07:58:48;;;;;;;1.40;0.38;;;;;;;-10.11;82.83;103295.97;5055150;28;20212;-72
2024/01/09 08:01:15;;;;;;;1.40;0.30;;;;;;;-10.09;83.69;103294.09;5055163;28;20306;-69
2024/01/09 08:03:42;;;;;;;1.40;0.30;;;;;;;-9.98;84.60;103296.84;5054776;28;20254;-69
2024/01/09 08:06:16;;;;;;;1.40;0.40;;;;;;;-9.83;84.57;103296.78;5054569;28;20247;-69
2024/01/09 08:08:43;;;;;;;1.40;0.40;;;;;;;-9.75;84.85;103297.13;5054862;28;20187;-69
2024/01/09 08:11:10;;;;;;;1.40;0.30;;;;;;;-9.64;84.36;103294.66;5055072;28;20265;-69
2024/01/09 08:13:39;;;;;;;1.40;0.40;;;;;;;-9.66;84.54;103292.13;5054739;28;20242;-69
2024/01/09 08:16:08;;;;;;;1.40;0.40;;;;;;;-9.58;84.62;103291.63;5054934;28;20278;-69
2024/01/09 08:18:34;;;;;;;1.40;0.30;;;;;;;-9.53;84.23;103301.81;5054715;28;20207;-69
2024/01/09 08:21:01;;;;;;;1.40;0.30;;;;;;;-9.47;84.07;103301.41;5054601;28;20246;-69
2024/01/09 08:23:28;;;;;;;1.48;0.52;;;;;;;-9.42;84.12;103296.69;5055274;28;20431;-69
2024/01/09 08:25:54;;;;;;;1.40;0.40;;;;;;;-9.26;84.08;103301.75;5054348;28;20615;-69
2024/01/09 08:28:21;;;;;;;1.40;0.50;;;;;;;-9.10;84.35;103297.13;5054414;28;20287;-69
2024/01/09 08:30:49;;;;;;;1.38;0.40;;;;;;;-8.91;85.65;103305.44;5054876;28;20203;-68
2024/01/09 08:33:16;;;;;;;1.33;0.30;;;;;;;-8.69;86.25;103315.28;5054331;28;20307;-68
2024/01/09 08:35:43;;;;;;;2.67;2.25;;;;;;;-8.53;86.75;103304.56;5054116;28;20323;-68
2024/01/09 08:38:11;;;;;;;1.40;0.50;;;;;;;-8.40;87.58;103304.53;5054009;28;20226;-68
2024/01/09 08:40:37;;;;;;;1.38;0.30;;;;;;;-8.24;87.97;103307.69;5054365;28;20644;-69
2024/01/09 08:43:04;;;;;;;1.50;0.60;;;;;;;-8.08;88.97;103304.81;5054404;28;20262;-69
2024/01/09 08:45:31;;;;;;;1.37;0.30;;;;;;;-7.92;88.68;103300.13;5054096;28;20301;-68
2024/01/09 08:47:59;;;;;;;6.50;2.00;;;;;;;-7.78;88.13;103295.66;5053613;28;20993;-69
2024/01/09 08:50:25;;;;;;;1.60;0.85;;;;;;;-7.63;87.84;103302.41;5054244;28;20473;-66
2024/01/09 08:52:52;;;;;;;1.40;0.40;;;;;;;-7.51;88.12;103301.50;5053831;28;20278;-67
2024/01/09 08:55:19;;;;;;;2.88;1.90;;;;;;;-7.38;87.10;103294.34;5053829;28;20232;-69
2024/01/09 08:57:46;;;;;;;1.50;0.40;;;;;;;-7.25;86.55;103298.69;5053679;28;20690;-71
2024/01/09 09:00:14;;;;;;;1.60;0.87;;;;;;;-7.12;86.13;103302.06;5053938;28;20207;-69
2024/01/09 09:02:41;;;;;;;1.40;0.37;;;;;;;-7.05;86.10;103295.34;5053807;28;20545;-72
2024/01/09 09:05:11;;;;;;;1.50;0.50;;;;;;;-6.96;85.79;103299.09;5053930;28;20438;-72
2024/01/09 09:07:37;;;;;;;1.60;0.70;;;;;;;-6.90;85.73;103296.84;5054252;28;20456;-72
2024/01/09 09:10:05;;;;;;;1.93;1.03;;;;;;;-6.78;85.53;103288.91;5054099;28;20481;-70
2024/01/09 09:12:31;;;;;;;1.40;0.40;;;;;;;-6.72;84.12;103301.63;5053439;28;20462;-71
2024/01/09 09:14:58;;;;;;;1.48;0.40;;;;;;;-6.70;84.00;103287.34;5054262;28;20531;-68
2024/01/09 09:17:25;;;;;;;1.40;0.30;;;;;;;-6.65;83.75;103297.53;5053657;28;20203;-68
2024/01/09 09:19:51;;;;;;;1.50;0.40;;;;;;;-6.64;83.60;103288.66;5054194;28;20533;-69
2024/01/09 09:22:23;;;;;;;1.60;0.60;;;;;;;-6.47;83.45;103290.81;5053235;28;20774;-70
2024/01/09 09:24:50;;;;;;;1.50;0.50;;;;;;;-6.46;83.12;103295.16;5053392;28;20926;-70
2024/01/09 09:27:16;;;;;;;1.50;0.40;;;;;;;-6.36;82.02;103292.63;5053512;28;20980;-70
2024/01/09 09:29:43;;;;;;;1.63;0.70;;;;;;;-6.38;81.21;103291.88;5053896;28;20521;-69
2024/01/09 09:32:10;;;;;;;1.50;0.37;;;;;;;-6.38;81.50;103284.81;5053485;28;20545;-69
2024/01/09 09:34:40;;;;;;;1.50;0.40;;;;;;;-6.30;80.43;103293.91;5053185;28;20478;-69
2024/01/09 09:37:06;;;;;;;5.87;1.97;;;;;;;-6.19;79.66;103289.47;5053902;28;20474;-69
2024/01/09 09:39:34;;;;;;;4.43;1.33;;;;;;;-6.21;77.95;103286.09;5053489;28;20478;-69
2024/01/09 09:42:01;;;;;;;1.50;0.40;;;;;;;-6.13;77.69;103288.13;5053340;28;20537;-69
2024/01/09 09:44:28;;;;;;;2.50;0.90;;;;;;;-6.18;77.76;103290.31;5053620;28;20493;-69
2024/01/09 09:46:55;;;;;;;4.67;1.83;;;;;;;-6.17;77.24;103297.25;5053222;28;20948;-69
2024/01/09 09:49:22;;;;;;;1.47;0.40;;;;;;;-6.19;77.17;103289.47;5053726;28;20434;-70
2024/01/09 09:51:50;;;;;;;1.50;0.37;;;;;;;-6.08;77.14;103287.75;5053179;28;20468;-70
2024/01/09 09:54:17;;;;;;;1.63;0.50;;;;;;;-6.01;77.18;103284.50;5053106;28;20441;-68
2024/01/09 09:56:47;;;;;;;1.50;0.40;;;;;;;-6.02;77.85;103280.19;5053270;28;20517;-68
2024/01/09 09:59:13;;;;;;;1.50;0.43;;;;;;;-6.00;76.69;103278.25;5054381;28;20446;-67
2024/01/09 10:01:42;;;;;;;1.63;0.53;;;;;;;-5.91;77.98;103280.09;5057390;28;20462;-69
2024/01/09 10:04:29;;;;;;;1.50;0.33;;;;;;;-5.85;77.30;103279.59;5057096;28;20442;-69
2024/01/09 10:06:56;;;;;;;3.50;1.63;;;;;;;-5.78;76.47;103282.59;5054750;28;20541;-69
2024/01/09 10:09:27;;;;;;;1.50;0.37;;;;;;;-5.69;76.23;103278.34;5056939;28;20452;-69
2024/01/09 10:11:55;;;;;;;1.50;0.30;;;;;;;-5.55;76.00;103269.28;5056547;28;20489;-69
2024/01/09 10:14:21;;;;;;;5.37;2.00;;;;;;;-5.55;74.73;103271.91;5056803;28;20465;-69
2024/01/09 10:16:53;;;;;;;1.50;0.40;;;;;;;-5.55;73.49;103272.75;5056839;28;20434;-69
2024/01/09 10:19:21;;;;;;;1.43;0.40;;;;;;;-5.54;73.41;103271.78;5057126;28;20879;-69
2024/01/09 10:21:48;;;;;;;1.60;0.50;;;;;;;-5.52;74.46;103272.50;5057090;28;20462;-69
2024/01/09 10:24:15;;;;;;;1.53;0.40;;;;;;;-5.38;74.23;103273.97;5056840;28;20444;-69
2024/01/09 10:26:42;;;;;;;1.97;1.10;;;;;;;-5.30;73.64;103266.25;5056382;28;20926;-69
2024/01/09 10:29:10;;;;;;;5.20;2.67;;;;;;;-5.35;73.01;103271.09;5056993;28;20438;-69
2024/01/09 10:31:38;;;;;;;1.70;0.63;;;;;;;-5.26;72.97;103269.47;5056476;28;20453;-69
2024/01/09 10:34:05;;;;;;;1.50;0.30;;;;;;;-5.20;72.23;103261.84;5056619;28;20442;-69
2024/01/09 10:36:32;;;;;;;1.50;0.40;;;;;;;-5.26;70.99;103257.09;5056245;28;20568;-69
2024/01/09 10:39:04;;;;;;;2.07;0.50;;;;;;;-5.26;72.30;103258.91;5056350;28;20452;-69
2024/01/09 10:41:31;;;;;;;1.50;0.30;;;;;;;-5.20;72.33;103259.22;5056658;28;20553;-69
2024/01/09 10:43:59;;;;;;;1.50;0.40;;;;;;;-5.13;71.87;103257.75;5056473;28;20526;-69
2024/01/09 10:46:29;;;;;;;1.50;0.30;;;;;;;-5.00;71.68;103257.53;5056665;28;20848;-69
2024/01/09 10:48:57;;;;;;;1.50;0.40;;;;;;;-4.99;71.51;103264.47;5056324;28;20446;-69
2024/01/09 10:51:24;;;;;;;1.70;0.90;;;;;;;-4.92;70.41;103254.19;5056195;28;20504;-69
2024/01/09 10:53:52;;;;;;;2.13;0.97;;;;;;;-4.84;69.48;103255.22;5056030;28;20517;-69
2024/01/09 10:56:21;;;;;;;1.70;0.87;;;;;;;-4.79;70.02;103252.16;5056114;28;20579;-70
2024/01/09 10:58:48;;;;;;;1.50;0.37;;;;;;;-4.68;70.69;103251.25;5056226;28;20934;-70
2024/01/09 11:01:15;;;;;;;1.50;0.30;;;;;;;-4.61;70.83;103252.38;5055755;28;20438;-69
2024/01/09 11:03:44;;;;;;;1.60;0.60;;;;;;;-4.57;69.69;103256.41;5056068;28;21020;-69
2024/01/09 11:06:12;;;;;;;1.60;0.47;;;;;;;-4.49;69.87;103250.47;5055683;28;20435;-69
2024/01/09 11:08:43;;;;;;;1.90;0.80;;;;;;;-4.40;70.37;103250.47;5055623;28;20942;-69
2024/01/09 11:11:13;;;;;;;1.50;0.40;;;;;;;-4.30;69.76;103255.78;5054869;28;20434;-69
2024/01/09 11:13:46;;;;;;;1.60;0.60;;;;;;;-4.24;69.43;103257.06;5056154;28;20522;-69
2024/01/09 11:16:16;;;;;;;1.50;0.50;;;;;;;-4.15;69.51;103248.31;5056111;28;20497;-69
2024/01/09 11:18:46;;;;;;;1.87;0.70;;;;;;;-4.06;68.97;103247.47;5055743;28;20488;-70
2024/01/09 11:21:13;;;;;;;1.60;0.60;;;;;;;-3.97;68.06;103251.94;5055573;28;20438;-70
2024/01/09 11:24:00;;;;;;;1.50;0.30;;;;;;;-3.89;67.82;103246.78;5055687;28;21029;-69